Latest Weather Observations for Cape Bruny AWS

IDT60801

Issued at 10:35 pm EST Wednesday 20 August 2014 (issued every 30 minutes, with the page automatically refreshed every 10 minutes)

About weather observations | Map of weather stations | Latest weather observations for TAS | Other Formats
Station Details ID: 094198 Name: CAPE BRUNY (CAPE BRUNY) Lat: -43.49 Lon: 147.14 Height: 59.7 m
Data from the previous 72 hours. | See also: Recent months at Cape Bruny AWS
Date/Time
EST
Temp
°C
App
Temp
°C
Dew
Point
Rel
Hum
%
Delta-T
°C
Wind Press
QNH
hPa
Press
MSL
hPa
Rain
since 9 am
mm
Dir
 
Spd
km/h
Gust
km/h
Spd
kts
Gust
kts
20/10:30pm 8.6 5.7 6.7 88 0.9 WNW 11 13 6 7 1030.0 - 0.0
20/10:00pm 8.4 5.5 6.5 88 0.9 WNW 11 13 6 7 1029.9 1030.0 0.0
20/09:30pm 8.7 6.2 6.5 86 1.0 NW 9 13 5 7 1029.5 - 0.0
20/09:00pm 9.1 5.8 6.2 82 1.3 WSW 13 15 7 8 1029.4 1029.5 0.0
20/08:30pm 9.2 5.0 5.9 80 1.5 SW 17 24 9 13 1029.2 - 0.0
20/08:00pm 9.5 5.4 6.2 80 1.5 SW 17 26 9 14 1029.0 1029.1 0.0
20/07:30pm 9.4 5.2 5.9 79 1.6 SW 17 24 9 13 1028.8 - 0.0
20/07:00pm 9.6 5.1 6.1 79 1.6 SW 19 24 10 13 1028.5 1028.6 0.0
20/06:30pm 9.5 5.3 5.9 78 1.7 SW 17 24 9 13 1028.2 - 0.0
20/06:00pm 9.6 5.5 6.1 79 1.6 SW 17 26 9 14 1027.8 1027.9 0.0
20/05:30pm 9.7 5.5 5.9 77 1.8 SW 17 24 9 13 1027.4 - 0.0
20/05:00pm 10.4 5.6 5.8 73 2.1 SW 20 28 11 15 1027.2 1027.3 0.0
20/04:30pm 11.0 6.3 6.2 72 2.2 SW 20 30 11 16 1027.0 - 0.0
20/04:00pm 11.0 5.2 6.2 72 2.2 SW 26 35 14 19 1026.8 1026.9 0.0
20/03:30pm 11.0 5.7 6.6 74 2.1 SW 24 33 13 18 1026.7 - 0.0
20/03:00pm 11.4 5.6 6.3 71 2.4 SW 26 33 14 18 1026.4 1026.5 0.0
20/02:30pm 11.3 4.7 6.2 71 2.4 SW 30 37 16 20 1026.3 - 0.0
20/02:00pm 12.0 6.4 5.2 63 3.1 SW 24 32 13 17 1026.3 1026.4 0.0
20/01:30pm 12.3 7.7 6.4 67 2.8 SW 20 30 11 16 1026.1 - 0.0
20/01:00pm 12.4 7.8 6.5 67 2.8 SW 20 30 11 16 1026.0 1026.1 0.0
20/12:30pm 11.8 7.1 6.1 68 2.7 SW 20 28 11 15 1026.2 - 0.0
20/12:00pm 11.4 5.7 4.8 64 3.0 WSW 24 33 13 18 1026.2 1026.3 0.0
20/11:30am 11.7 8.0 6.2 69 2.6 W 15 22 8 12 1026.4 - 0.0
20/11:00am 12.2 8.9 6.5 68 2.7 WNW 13 17 7 9 1026.4 1026.5 0.0
20/10:30am 11.7 8.0 6.4 70 2.5 W 15 19 8 10 1026.3 - 0.0
20/10:00am 10.8 7.4 5.8 71 2.3 W 13 19 7 10 1026.2 1026.3 0.0
20/09:30am 10.5 7.9 6.3 75 2.0 WNW 9 13 5 7 1026.0 - 0.0
20/09:00am 10.0 5.9 6.3 78 1.7 W 17 20 9 11 1025.8 1025.9 0.0
20/08:30am 9.0 5.9 5.6 79 1.5 W 11 15 6 8 1025.6 - 0.0
20/08:00am 8.6 5.9 5.4 80 1.4 W 9 15 5 8 1025.2 1025.3 0.0
20/07:30am 7.5 5.0 4.6 82 1.3 W 7 11 4 6 1025.0 - 0.0
20/07:00am 7.8 4.2 5.1 83 1.2 W 13 19 7 10 1024.5 1024.6 0.0
20/06:30am 7.4 4.5 4.9 84 1.1 W 9 17 5 9 1024.3 - 0.0
20/06:00am 7.9 3.5 4.8 81 1.4 W 17 20 9 11 1024.0 1024.1 0.0
20/05:30am 8.3 4.0 5.4 82 1.3 W 17 20 9 11 1023.9 - 0.0
20/05:00am 7.7 4.9 5.2 84 1.1 WNW 9 15 5 8 1023.7 1023.8 0.0
20/04:30am 7.7 4.9 5.2 84 1.1 NW 9 17 5 9 1023.7 - 0.0
20/04:00am 7.9 4.3 4.8 81 1.4 NW 13 17 7 9 1023.6 1023.7 0.0
20/03:30am 8.8 3.6 5.5 80 1.5 W 22 28 12 15 1023.7 - 0.0
20/03:00am 8.0 3.1 5.3 83 1.2 W 20 28 11 15 1023.5 1023.6 0.0
20/02:30am 8.0 2.5 5.8 86 1.0 W 24 32 13 17 1023.6 - 0.0
20/02:00am 8.6 0.7 6.1 84 1.1 W 37 46 20 25 1023.6 1023.7 0.0
20/01:30am 8.5 1.8 5.8 83 1.2 W 30 37 16 20 1023.6 - 0.0
20/01:00am 8.7 2.4 5.6 81 1.4 W 28 37 15 20 1023.6 1023.7 0.0
20/12:30am 8.5 2.6 5.6 82 1.3 W 26 33 14 18 1023.6 - 0.0
20/12:00am 8.3 5.1 4.9 79 1.5 W 11 13 6 7 1023.6 1023.7 0.0
 
Date/Time
EST
Temp
°C
App
Temp
°C
Dew
Point
Rel
Hum
%
Delta-T
°C
Wind Press
QNH
hPa
Press
MSL
hPa
Rain
since 9 am
mm
Dir
 
Spd
km/h
Gust
km/h
Spd
kts
Gust
kts
19/11:30pm 8.5 3.8 5.3 80 1.4 W 19 26 10 14 1023.4 - 0.0
19/11:00pm 8.3 3.4 5.1 80 1.4 W 20 28 11 15 1023.4 1023.5 0.0
19/10:30pm 8.6 4.3 5.2 79 1.5 W 17 24 9 13 1023.4 - 0.0
19/10:00pm 8.3 4.2 4.1 75 1.8 W 15 20 8 11 1023.4 1023.5 0.0
19/09:30pm 8.6 4.5 4.6 76 1.8 W 15 20 8 11 1023.5 - 0.0
19/09:00pm 8.3 4.7 4.9 79 1.5 W 13 17 7 9 1023.4 1023.5 0.0
19/08:30pm 8.0 4.3 4.4 78 1.6 WNW 13 15 7 8 1023.3 - 0.0
19/08:00pm 8.5 4.5 4.9 78 1.6 W 15 19 8 10 1023.1 1023.2 0.0
19/07:30pm 8.5 3.7 4.9 78 1.6 WNW 19 24 10 13 1023.0 - 0.0
19/07:00pm 8.4 3.8 5.5 82 1.3 W 19 24 10 13 1022.8 1022.9 0.0
19/06:30pm 8.7 2.3 5.4 80 1.5 WSW 28 33 15 18 1022.4 - 0.0
19/06:00pm 9.0 3.4 5.4 78 1.6 WSW 24 30 13 16 1022.2 1022.3 0.0
19/05:30pm 9.3 2.5 5.1 75 1.9 WSW 30 39 16 21 1022.0 - 0.0
19/05:00pm 9.7 2.0 5.3 74 2.0 WSW 35 46 19 25 1021.9 1022.0 0.0
19/04:30pm 9.3 2.2 5.7 78 1.6 WSW 32 41 17 22 1021.8 - 0.0
19/04:00pm 9.3 2.3 6.2 81 1.4 WSW 32 43 17 23 1021.7 1021.8 0.0
19/03:30pm 11.5 4.5 5.8 68 2.7 W 32 39 17 21 1021.5 - 0.0
19/03:00pm 10.4 3.7 5.6 72 2.2 W 30 41 16 22 1021.5 1021.6 0.0
19/02:30pm 10.3 4.5 6.3 76 1.9 WSW 26 33 14 18 1021.6 - 0.0
19/02:00pm 11.1 5.7 6.5 73 2.2 W 24 30 13 16 1021.7 1021.8 0.0
19/01:30pm 11.7 8.2 7.0 73 2.3 W 15 20 8 11 1021.7 - 0.0
19/01:00pm 11.9 7.7 7.4 74 2.2 W 19 24 10 13 1021.9 1022.0 0.0
19/12:30pm 10.9 7.8 7.2 78 1.8 W 13 20 7 11 1022.4 - 0.0
19/12:00pm 9.9 6.2 6.1 77 1.8 W 15 19 8 10 1022.8 1022.9 0.0
19/11:30am 10.4 6.8 5.2 70 2.4 WNW 13 19 7 10 1022.9 - 0.0
19/11:00am 10.3 7.1 4.9 69 2.4 NW 11 15 6 8 1023.1 1023.2 0.0
19/10:30am 9.7 6.4 6.2 79 1.6 NNW 13 20 7 11 1023.2 - 0.0
19/10:00am 9.5 6.7 5.3 75 1.9 W 9 15 5 8 1023.4 1023.5 0.0
19/09:30am 9.4 6.2 5.0 74 2.0 NW 11 15 6 8 1023.3 - 0.0
19/09:00am 8.9 4.8 4.5 74 1.9 NW 15 20 8 11 1023.3 1023.4 0.0
19/08:30am 7.8 4.1 4.7 81 1.4 N 13 19 7 10 1023.3 - 0.0
19/08:00am 7.8 3.8 5.1 83 1.2 N 15 22 8 12 1023.2 1023.3 0.0
19/07:30am 6.7 3.0 4.5 86 1.0 N 13 19 7 10 1022.9 - 0.0
19/07:00am 7.7 2.6 4.3 79 1.5 NW 20 24 11 13 1022.6 1022.7 0.0
19/06:30am 6.9 2.5 4.7 86 1.0 N 17 20 9 11 1022.6 - 0.0
19/06:00am 6.5 2.1 4.7 88 0.8 N 17 20 9 11 1022.6 1022.7 0.0
19/05:30am 6.6 2.5 4.6 87 0.9 N 15 20 8 11 1022.6 - 0.0
19/05:00am 6.7 2.7 4.7 87 0.9 N 15 20 8 11 1022.5 1022.6 0.0
19/04:30am 6.7 2.7 4.9 88 0.8 N 15 22 8 12 1022.5 - 0.0
19/04:00am 6.6 2.6 4.8 88 0.8 N 15 20 8 11 1022.6 1022.7 0.0
19/03:30am 7.2 3.3 5.2 87 0.9 N 15 19 8 10 1022.6 - 0.0
19/03:00am 7.1 2.8 5.4 89 0.8 N 17 20 9 11 1022.7 1022.8 0.0
19/02:30am 6.1 1.1 4.7 91 0.6 N 20 26 11 14 1022.9 - 0.0
19/02:00am 5.9 0.9 4.4 90 0.6 N 20 22 11 12 1023.2 1023.3 0.0
19/01:30am 5.9 1.1 4.4 90 0.6 N 19 20 10 11 1023.3 - 0.0
19/01:00am 6.2 1.8 4.5 89 0.7 N 17 20 9 11 1023.4 1023.5 0.0
19/12:30am 6.6 1.8 4.9 89 0.7 N 19 20 10 11 1023.5 - 0.0
19/12:00am 7.3 3.3 5.1 86 1.0 N 15 17 8 9 1023.6 1023.7 0.0
 
Date/Time
EST
Temp
°C
App
Temp
°C
Dew
Point
Rel
Hum
%
Delta-T
°C
Wind Press
QNH
hPa
Press
MSL
hPa
Rain
since 9 am
mm
Dir
 
Spd
km/h
Gust
km/h
Spd
kts
Gust
kts
18/11:30pm 7.8 3.9 5.3 84 1.1 N 15 17 8 9 1023.7 - 0.0
18/11:00pm 8.0 4.0 5.1 82 1.3 N 15 17 8 9 1023.7 1023.8 0.0
18/10:30pm 8.3 4.7 5.1 80 1.4 N 13 15 7 8 1023.8 - 0.0
18/10:00pm 8.5 4.5 4.7 77 1.7 N 15 17 8 9 1023.9 1024.0 0.0
18/09:30pm 8.6 4.5 4.4 75 1.9 N 15 17 8 9 1024.0 - 0.0
18/09:00pm 8.7 4.6 4.3 74 1.9 N 15 17 8 9 1023.9 1024.0 0.0
18/08:30pm 8.8 5.3 5.4 79 1.5 NNW 13 15 7 8 1023.7 - 0.0
18/08:00pm 8.6 6.1 4.6 76 1.8 N 7 13 4 7 1023.7 1023.8 0.0
18/07:30pm 9.7 8.6 5.1 73 2.1 CALM 0 0 0 0 1023.5 - 0.0
18/07:00pm 9.3 8.1 4.5 72 2.1 CALM 0 0 0 0 1023.4 1023.5 0.0
18/06:30pm 9.5 8.3 4.7 72 2.1 CALM 0 0 0 0 1023.3 - 0.0
18/06:00pm 9.2 7.6 4.6 73 2.0 E 2 7 1 4 1023.1 1023.2 0.0
18/05:30pm 9.2 8.0 4.4 72 2.1 CALM 0 0 0 0 1022.8 - 0.0
18/05:00pm 9.3 8.0 4.1 70 2.3 CALM 0 0 0 0 1022.5 1022.6 0.0
18/04:30pm 10.7 9.4 4.2 64 2.9 CALM 0 0 0 0 1022.5 - 0.0
18/04:00pm 11.4 9.1 4.6 63 3.1 S 6 7 3 4 1022.6 1022.7 0.0
18/03:30pm 11.4 9.0 4.4 62 3.2 S 6 7 3 4 1022.7 - 0.0
18/03:00pm 11.7 8.8 4.4 61 3.3 S 9 11 5 6 1022.6 1022.7 0.0
18/02:30pm 11.5 8.4 3.8 59 3.4 S 9 11 5 6 1022.7 - 0.0
18/02:00pm 11.9 9.3 4.2 59 3.5 S 7 9 4 5 1022.8 1022.9 0.0
18/01:30pm 12.3 9.5 3.3 54 4.0 WSW 7 11 4 6 1022.8 - 0.0
18/01:00pm 12.2 9.0 3.2 54 4.0 WNW 9 13 5 7 1023.0 1023.1 0.0
18/12:30pm 12.2 9.6 3.4 55 3.9 NW 6 9 3 5 1023.2 - 0.0
18/12:00pm 12.7 9.8 4.9 59 3.6 NNE 9 13 5 7 1023.5 1023.6 0.0
18/11:30am 11.3 7.6 4.5 63 3.1 N 13 17 7 9 1023.8 - 0.0
18/11:00am 10.5 6.0 4.4 66 2.7 NNE 17 20 9 11 1024.0 1024.1 0.0
18/10:30am 9.7 5.6 4.1 68 2.5 NNE 15 19 8 10 1024.0 - 0.0
18/10:00am 8.5 4.0 4.1 74 1.9 N 17 20 9 11 1024.2 1024.3 0.0
18/09:30am 7.6 2.7 4.0 78 1.6 N 19 24 10 13 1024.2 - 0.0
18/09:00am 7.3 2.2 3.9 79 1.5 N 20 28 11 15 1024.1 1024.2 0.0
18/08:30am 6.9 2.0 4.0 82 1.2 N 19 24 10 13 1024.1 - 0.0
18/08:00am 6.1 0.9 3.8 85 1.0 N 20 26 11 14 1023.8 1023.9 0.0
18/07:30am 5.5 0.3 3.7 88 0.8 N 20 28 11 15 1023.6 - 0.0
18/07:00am 5.2 0.0 3.4 88 0.7 N 20 26 11 14 1023.3 1023.4 0.0
18/06:30am 5.4 0.7 2.9 84 1.0 N 17 22 9 12 1022.9 - 0.0
18/06:00am 5.4 1.1 3.1 85 0.9 N 15 20 8 11 1022.7 1022.8 0.0
18/05:30am 6.0 1.7 3.3 83 1.1 N 15 20 8 11 1022.5 - 0.0
18/05:00am 6.3 1.7 3.5 82 1.2 N 17 20 9 11 1022.3 1022.4 0.0
18/04:30am 6.6 1.9 3.4 80 1.4 N 17 20 9 11 1022.3 - 0.0
18/04:00am 6.5 1.9 3.7 82 1.2 N 17 20 9 11 1022.3 1022.4 0.0
18/03:30am 6.7 1.7 3.5 80 1.4 N 19 22 10 12 1022.4 - 0.0
18/03:00am 6.6 2.0 3.6 81 1.3 N 17 20 9 11 1022.5 1022.6 0.0
18/02:30am 6.6 1.6 3.6 81 1.3 N 19 22 10 12 1022.6 - 0.0
18/02:00am 6.3 1.3 3.8 84 1.1 N 19 26 10 14 1022.9 1023.0 0.0
18/01:30am 6.6 1.8 2.5 75 1.7 N 17 20 9 11 1022.8 - 0.0
18/01:00am 7.7 2.0 2.6 70 2.1 NW 22 28 12 15 1022.6 1022.7 0.0
18/12:30am 7.3 1.9 2.6 72 2.0 NW 20 26 11 14 1022.5 - 0.0
18/12:00am 7.4 1.8 3.3 75 1.7 WNW 22 30 12 16 1022.2 1022.3 0.0
 
Date/Time
EST
Temp
°C
App
Temp
°C
Dew
Point
Rel
Hum
%
Delta-T
°C
Wind Press
QNH
hPa
Press
MSL
hPa
Rain
since 9 am
mm
Dir
 
Spd
km/h
Gust
km/h
Spd
kts
Gust
kts
17/11:30pm 7.2 2.1 3.1 75 1.7 WNW 19 24 10 13 1021.9 - 0.0
17/11:00pm 7.4 2.2 3.8 78 1.5 WNW 20 28 11 15 1022.0 1022.1 0.0

Other Formats:

Comma delimited format used in spreadsheet applications
http://www.bom.gov.au/fwo/IDT60801/IDT60801.95967.axf

JavaScript Object Notation format (JSON) in row-major order
http://www.bom.gov.au/fwo/IDT60801/IDT60801.95967.json